sensor_id;sensor_type;location;lat;lon;timestamp;P1;durP1;ratioP1;P2;durP2;ratioP2
14923;SDS011;7554;43.600;1.480;2023-10-19T00:02:28;2.37;;;1.67;;
14923;SDS011;7554;43.600;1.480;2023-10-19T00:14:59;6.47;;;2.40;;
14923;SDS011;7554;43.600;1.480;2023-10-19T00:17:29;3.97;;;2.27;;
14923;SDS011;7554;43.600;1.480;2023-10-19T00:19:58;6.70;;;2.43;;
14923;SDS011;7554;43.600;1.480;2023-10-19T00:22:51;6.70;;;2.37;;
14923;SDS011;7554;43.600;1.480;2023-10-19T00:25:21;6.40;;;2.20;;
14923;SDS011;7554;43.600;1.480;2023-10-19T00:27:50;3.53;;;2.20;;
14923;SDS011;7554;43.600;1.480;2023-10-19T00:31:03;9.93;;;2.70;;
14923;SDS011;7554;43.600;1.480;2023-10-19T00:34:02;6.77;;;2.60;;
14923;SDS011;7554;43.600;1.480;2023-10-19T00:36:32;5.13;;;2.30;;
14923;SDS011;7554;43.600;1.480;2023-10-19T00:39:02;4.10;;;2.07;;
14923;SDS011;7554;43.600;1.480;2023-10-19T00:43:28;4.67;;;2.30;;
14923;SDS011;7554;43.600;1.480;2023-10-19T00:45:36;4.70;;;2.20;;
14923;SDS011;7554;43.600;1.480;2023-10-19T00:48:07;4.47;;;2.13;;
14923;SDS011;7554;43.600;1.480;2023-10-19T00:50:37;6.40;;;2.50;;
14923;SDS011;7554;43.600;1.480;2023-10-19T00:53:06;6.10;;;2.40;;
14923;SDS011;7554;43.600;1.480;2023-10-19T00:59:10;3.57;;;2.10;;
14923;SDS011;7554;43.600;1.480;2023-10-19T01:08:02;7.13;;;2.87;;
14923;SDS011;7554;43.600;1.480;2023-10-19T01:10:39;4.67;;;2.90;;
14923;SDS011;7554;43.600;1.480;2023-10-19T01:13:10;6.93;;;3.53;;
14923;SDS011;7554;43.600;1.480;2023-10-19T01:15:41;7.47;;;2.83;;
14923;SDS011;7554;43.600;1.480;2023-10-19T01:18:14;9.50;;;3.57;;
14923;SDS011;7554;43.600;1.480;2023-10-19T01:20:43;6.90;;;3.40;;
14923;SDS011;7554;43.600;1.480;2023-10-19T01:23:17;5.83;;;3.27;;
14923;SDS011;7554;43.600;1.480;2023-10-19T01:26:01;8.60;;;3.27;;
14923;SDS011;7554;43.600;1.480;2023-10-19T01:28:52;8.10;;;3.50;;
14923;SDS011;7554;43.600;1.480;2023-10-19T01:31:26;6.77;;;3.20;;
14923;SDS011;7554;43.600;1.480;2023-10-19T01:34:03;6.93;;;3.53;;
14923;SDS011;7554;43.600;1.480;2023-10-19T01:36:33;6.87;;;3.50;;
14923;SDS011;7554;43.600;1.480;2023-10-19T01:39:09;5.20;;;3.13;;
14923;SDS011;7554;43.600;1.480;2023-10-19T01:41:36;5.57;;;2.83;;
14923;SDS011;7554;43.600;1.480;2023-10-19T01:44:08;5.17;;;3.17;;
14923;SDS011;7554;43.600;1.480;2023-10-19T01:46:38;6.57;;;3.10;;
14923;SDS011;7554;43.600;1.480;2023-10-19T01:49:09;4.90;;;2.43;;
14923;SDS011;7554;43.600;1.480;2023-10-19T01:51:36;6.53;;;3.10;;
14923;SDS011;7554;43.600;1.480;2023-10-19T01:54:04;8.70;;;2.80;;
14923;SDS011;7554;43.600;1.480;2023-10-19T01:56:33;7.33;;;2.93;;
14923;SDS011;7554;43.600;1.480;2023-10-19T01:59:01;11.43;;;4.07;;
14923;SDS011;7554;43.600;1.480;2023-10-19T02:01:29;6.53;;;2.80;;
14923;SDS011;7554;43.600;1.480;2023-10-19T02:04:03;8.03;;;3.27;;
14923;SDS011;7554;43.600;1.480;2023-10-19T02:06:31;8.80;;;3.30;;
14923;SDS011;7554;43.600;1.480;2023-10-19T02:09:02;7.47;;;3.20;;
14923;SDS011;7554;43.600;1.480;2023-10-19T02:11:36;8.30;;;3.27;;
14923;SDS011;7554;43.600;1.480;2023-10-19T02:14:07;9.83;;;3.57;;
14923;SDS011;7554;43.600;1.480;2023-10-19T02:16:39;10.70;;;3.87;;
14923;SDS011;7554;43.600;1.480;2023-10-19T02:19:08;12.30;;;3.40;;
14923;SDS011;7554;43.600;1.480;2023-10-19T02:21:34;11.33;;;3.63;;
14923;SDS011;7554;43.600;1.480;2023-10-19T02:24:04;13.60;;;3.47;;
14923;SDS011;7554;43.600;1.480;2023-10-19T02:26:32;13.37;;;3.63;;
14923;SDS011;7554;43.600;1.480;2023-10-19T02:29:02;11.37;;;3.83;;
14923;SDS011;7554;43.600;1.480;2023-10-19T02:31:33;16.37;;;4.20;;
14923;SDS011;7554;43.600;1.480;2023-10-19T02:34:03;15.77;;;3.87;;
14923;SDS011;7554;43.600;1.480;2023-10-19T02:36:30;13.53;;;4.27;;
14923;SDS011;7554;43.600;1.480;2023-10-19T02:38:59;18.13;;;4.57;;
14923;SDS011;7554;43.600;1.480;2023-10-19T02:41:32;16.70;;;4.10;;
14923;SDS011;7554;43.600;1.480;2023-10-19T02:44:07;14.57;;;4.57;;
14923;SDS011;7554;43.600;1.480;2023-10-19T02:46:35;18.53;;;4.57;;
14923;SDS011;7554;43.600;1.480;2023-10-19T02:49:04;14.50;;;4.00;;
14923;SDS011;7554;43.600;1.480;2023-10-19T02:51:36;16.30;;;4.37;;
14923;SDS011;7554;43.600;1.480;2023-10-19T02:54:03;11.73;;;3.40;;
14923;SDS011;7554;43.600;1.480;2023-10-19T02:56:33;12.40;;;3.60;;
14923;SDS011;7554;43.600;1.480;2023-10-19T02:59:02;20.47;;;4.67;;
14923;SDS011;7554;43.600;1.480;2023-10-19T03:01:30;14.13;;;4.00;;
14923;SDS011;7554;43.600;1.480;2023-10-19T03:03:59;13.60;;;3.80;;
14923;SDS011;7554;43.600;1.480;2023-10-19T03:06:27;16.33;;;4.37;;
14923;SDS011;7554;43.600;1.480;2023-10-19T03:08:58;19.67;;;4.47;;
14923;SDS011;7554;43.600;1.480;2023-10-19T03:11:28;14.70;;;3.73;;
14923;SDS011;7554;43.600;1.480;2023-10-19T03:13:55;13.97;;;3.87;;
14923;SDS011;7554;43.600;1.480;2023-10-19T03:16:22;17.60;;;4.87;;
14923;SDS011;7554;43.600;1.480;2023-10-19T03:18:54;14.17;;;3.80;;
14923;SDS011;7554;43.600;1.480;2023-10-19T03:21:21;11.60;;;3.97;;
14923;SDS011;7554;43.600;1.480;2023-10-19T03:23:53;15.67;;;3.67;;
14923;SDS011;7554;43.600;1.480;2023-10-19T03:26:19;17.93;;;3.87;;
14923;SDS011;7554;43.600;1.480;2023-10-19T03:28:53;15.60;;;3.97;;
14923;SDS011;7554;43.600;1.480;2023-10-19T03:31:21;18.47;;;4.03;;
14923;SDS011;7554;43.600;1.480;2023-10-19T03:33:50;12.67;;;3.00;;
14923;SDS011;7554;43.600;1.480;2023-10-19T03:36:22;12.03;;;3.80;;
14923;SDS011;7554;43.600;1.480;2023-10-19T03:38:50;15.67;;;2.70;;
14923;SDS011;7554;43.600;1.480;2023-10-19T03:41:18;12.17;;;3.20;;
14923;SDS011;7554;43.600;1.480;2023-10-19T03:43:52;11.97;;;3.30;;
14923;SDS011;7554;43.600;1.480;2023-10-19T03:46:22;14.50;;;3.03;;
14923;SDS011;7554;43.600;1.480;2023-10-19T03:48:53;16.37;;;3.40;;
14923;SDS011;7554;43.600;1.480;2023-10-19T03:51:25;15.43;;;3.27;;
14923;SDS011;7554;43.600;1.480;2023-10-19T03:54:04;14.43;;;3.07;;
14923;SDS011;7554;43.600;1.480;2023-10-19T03:56:48;11.17;;;3.00;;
14923;SDS011;7554;43.600;1.480;2023-10-19T03:59:17;17.43;;;3.60;;
14923;SDS011;7554;43.600;1.480;2023-10-19T04:01:44;15.57;;;3.30;;
14923;SDS011;7554;43.600;1.480;2023-10-19T04:04:12;14.63;;;4.00;;
14923;SDS011;7554;43.600;1.480;2023-10-19T04:06:43;12.03;;;3.93;;
14923;SDS011;7554;43.600;1.480;2023-10-19T04:09:14;10.93;;;3.07;;
14923;SDS011;7554;43.600;1.480;2023-10-19T04:11:43;17.40;;;3.27;;
14923;SDS011;7554;43.600;1.480;2023-10-19T04:14:17;15.60;;;3.67;;
14923;SDS011;7554;43.600;1.480;2023-10-19T04:16:46;13.77;;;3.40;;
14923;SDS011;7554;43.600;1.480;2023-10-19T04:19:14;15.97;;;3.50;;
14923;SDS011;7554;43.600;1.480;2023-10-19T04:21:43;13.77;;;3.50;;
14923;SDS011;7554;43.600;1.480;2023-10-19T04:24:11;9.30;;;2.63;;
14923;SDS011;7554;43.600;1.480;2023-10-19T04:26:39;12.93;;;3.13;;
14923;SDS011;7554;43.600;1.480;2023-10-19T04:29:07;13.00;;;3.30;;
14923;SDS011;7554;43.600;1.480;2023-10-19T04:31:36;13.80;;;3.53;;
14923;SDS011;7554;43.600;1.480;2023-10-19T04:34:15;15.03;;;3.07;;
14923;SDS011;7554;43.600;1.480;2023-10-19T04:36:47;9.50;;;3.37;;
14923;SDS011;7554;43.600;1.480;2023-10-19T04:39:14;12.00;;;3.07;;
14923;SDS011;7554;43.600;1.480;2023-10-19T04:41:44;13.40;;;3.40;;
14923;SDS011;7554;43.600;1.480;2023-10-19T04:44:13;9.43;;;3.07;;
14923;SDS011;7554;43.600;1.480;2023-10-19T04:46:41;11.77;;;2.70;;
14923;SDS011;7554;43.600;1.480;2023-10-19T04:49:09;12.50;;;3.10;;
14923;SDS011;7554;43.600;1.480;2023-10-19T04:51:36;8.87;;;2.80;;
14923;SDS011;7554;43.600;1.480;2023-10-19T04:54:05;13.20;;;2.70;;
14923;SDS011;7554;43.600;1.480;2023-10-19T04:56:34;14.33;;;3.60;;
14923;SDS011;7554;43.600;1.480;2023-10-19T04:59:02;8.47;;;2.80;;
14923;SDS011;7554;43.600;1.480;2023-10-19T05:01:30;8.03;;;2.60;;
14923;SDS011;7554;43.600;1.480;2023-10-19T05:03:58;12.93;;;3.13;;
14923;SDS011;7554;43.600;1.480;2023-10-19T05:06:26;8.30;;;2.20;;
14923;SDS011;7554;43.600;1.480;2023-10-19T05:08:53;9.97;;;2.30;;
14923;SDS011;7554;43.600;1.480;2023-10-19T05:11:23;10.63;;;4.70;;
14923;SDS011;7554;43.600;1.480;2023-10-19T05:13:51;14.50;;;2.60;;
14923;SDS011;7554;43.600;1.480;2023-10-19T05:16:18;4.63;;;1.93;;
14923;SDS011;7554;43.600;1.480;2023-10-19T05:18:48;6.67;;;1.83;;
14923;SDS011;7554;43.600;1.480;2023-10-19T05:21:16;10.63;;;2.00;;
14923;SDS011;7554;43.600;1.480;2023-10-19T05:23:46;10.40;;;1.93;;
14923;SDS011;7554;43.600;1.480;2023-10-19T05:26:14;9.10;;;1.80;;
14923;SDS011;7554;43.600;1.480;2023-10-19T05:28:43;5.97;;;1.90;;
14923;SDS011;7554;43.600;1.480;2023-10-19T05:31:12;5.57;;;1.70;;
14923;SDS011;7554;43.600;1.480;2023-10-19T05:33:40;8.57;;;1.93;;
14923;SDS011;7554;43.600;1.480;2023-10-19T05:36:08;6.17;;;1.70;;
14923;SDS011;7554;43.600;1.480;2023-10-19T05:38:35;9.23;;;2.23;;
14923;SDS011;7554;43.600;1.480;2023-10-19T05:41:03;7.90;;;1.70;;
14923;SDS011;7554;43.600;1.480;2023-10-19T05:43:31;6.53;;;1.70;;
14923;SDS011;7554;43.600;1.480;2023-10-19T05:46:01;5.23;;;1.50;;
14923;SDS011;7554;43.600;1.480;2023-10-19T05:48:28;8.60;;;1.83;;
14923;SDS011;7554;43.600;1.480;2023-10-19T05:50:55;9.07;;;2.17;;
14923;SDS011;7554;43.600;1.480;2023-10-19T05:53:23;5.70;;;1.60;;
14923;SDS011;7554;43.600;1.480;2023-10-19T05:55:50;6.10;;;1.87;;
14923;SDS011;7554;43.600;1.480;2023-10-19T05:58:21;12.13;;;2.40;;
14923;SDS011;7554;43.600;1.480;2023-10-19T06:00:48;6.17;;;1.53;;
14923;SDS011;7554;43.600;1.480;2023-10-19T06:03:18;12.53;;;1.90;;
14923;SDS011;7554;43.600;1.480;2023-10-19T06:05:46;13.00;;;2.70;;
14923;SDS011;7554;43.600;1.480;2023-10-19T06:08:14;6.67;;;1.90;;
14923;SDS011;7554;43.600;1.480;2023-10-19T06:10:45;10.93;;;2.43;;
14923;SDS011;7554;43.600;1.480;2023-10-19T06:13:18;8.40;;;2.40;;
14923;SDS011;7554;43.600;1.480;2023-10-19T06:15:50;6.77;;;2.20;;
14923;SDS011;7554;43.600;1.480;2023-10-19T06:18:27;11.47;;;2.50;;
14923;SDS011;7554;43.600;1.480;2023-10-19T06:20:57;5.77;;;2.30;;
14923;SDS011;7554;43.600;1.480;2023-10-19T06:23:24;9.67;;;2.83;;
14923;SDS011;7554;43.600;1.480;2023-10-19T06:25:54;7.97;;;2.57;;
14923;SDS011;7554;43.600;1.480;2023-10-19T06:28:21;7.90;;;2.30;;
14923;SDS011;7554;43.600;1.480;2023-10-19T06:30:49;12.20;;;2.80;;
14923;SDS011;7554;43.600;1.480;2023-10-19T06:33:19;5.23;;;2.33;;
14923;SDS011;7554;43.600;1.480;2023-10-19T06:35:49;12.70;;;2.80;;
14923;SDS011;7554;43.600;1.480;2023-10-19T06:38:20;13.83;;;2.70;;
14923;SDS011;7554;43.600;1.480;2023-10-19T06:40:50;12.13;;;3.03;;
14923;SDS011;7554;43.600;1.480;2023-10-19T06:43:18;9.90;;;2.50;;
14923;SDS011;7554;43.600;1.480;2023-10-19T06:45:49;8.07;;;2.53;;
14923;SDS011;7554;43.600;1.480;2023-10-19T06:48:20;10.70;;;2.60;;
14923;SDS011;7554;43.600;1.480;2023-10-19T06:50:47;6.87;;;2.20;;
14923;SDS011;7554;43.600;1.480;2023-10-19T06:53:16;9.47;;;2.63;;
14923;SDS011;7554;43.600;1.480;2023-10-19T06:55:44;9.80;;;2.70;;
14923;SDS011;7554;43.600;1.480;2023-10-19T06:58:11;10.77;;;2.40;;
14923;SDS011;7554;43.600;1.480;2023-10-19T07:00:40;10.57;;;2.77;;
14923;SDS011;7554;43.600;1.480;2023-10-19T07:03:08;6.43;;;2.33;;
14923;SDS011;7554;43.600;1.480;2023-10-19T07:08:56;12.40;;;2.77;;
14923;SDS011;7554;43.600;1.480;2023-10-19T07:11:32;11.03;;;2.20;;
14923;SDS011;7554;43.600;1.480;2023-10-19T07:14:03;10.47;;;2.73;;
14923;SDS011;7554;43.600;1.480;2023-10-19T07:16:32;8.00;;;2.43;;
14923;SDS011;7554;43.600;1.480;2023-10-19T07:19:01;9.07;;;2.37;;
14923;SDS011;7554;43.600;1.480;2023-10-19T07:21:42;11.37;;;2.77;;
14923;SDS011;7554;43.600;1.480;2023-10-19T07:24:22;7.50;;;2.60;;
14923;SDS011;7554;43.600;1.480;2023-10-19T07:26:51;6.47;;;2.27;;
14923;SDS011;7554;43.600;1.480;2023-10-19T07:37:03;10.70;;;2.63;;
14923;SDS011;7554;43.600;1.480;2023-10-19T07:39:18;7.17;;;2.23;;
14923;SDS011;7554;43.600;1.480;2023-10-19T07:41:54;12.53;;;2.43;;
14923;SDS011;7554;43.600;1.480;2023-10-19T07:44:29;10.83;;;2.50;;
14923;SDS011;7554;43.600;1.480;2023-10-19T07:47:11;11.93;;;2.40;;
14923;SDS011;7554;43.600;1.480;2023-10-19T07:49:57;8.70;;;2.60;;
14923;SDS011;7554;43.600;1.480;2023-10-19T07:55:25;9.30;;;1.80;;
14923;SDS011;7554;43.600;1.480;2023-10-19T07:57:57;9.07;;;2.20;;
14923;SDS011;7554;43.600;1.480;2023-10-19T08:00:39;6.23;;;1.93;;
14923;SDS011;7554;43.600;1.480;2023-10-19T08:03:26;9.03;;;2.37;;
14923;SDS011;7554;43.600;1.480;2023-10-19T08:06:29;10.20;;;2.43;;
14923;SDS011;7554;43.600;1.480;2023-10-19T08:09:04;9.80;;;2.20;;
14923;SDS011;7554;43.600;1.480;2023-10-19T08:14:45;6.07;;;2.10;;
14923;SDS011;7554;43.600;1.480;2023-10-19T08:17:13;5.67;;;2.10;;
14923;SDS011;7554;43.600;1.480;2023-10-19T08:19:40;9.83;;;2.67;;
14923;SDS011;7554;43.600;1.480;2023-10-19T08:25:34;6.80;;;2.50;;
14923;SDS011;7554;43.600;1.480;2023-10-19T08:28:12;9.33;;;3.00;;
14923;SDS011;7554;43.600;1.480;2023-10-19T08:30:53;10.43;;;2.47;;
14923;SDS011;7554;43.600;1.480;2023-10-19T08:33:39;8.83;;;2.27;;
14923;SDS011;7554;43.600;1.480;2023-10-19T08:36:27;7.07;;;2.53;;
14923;SDS011;7554;43.600;1.480;2023-10-19T08:38:57;9.20;;;2.37;;
14923;SDS011;7554;43.600;1.480;2023-10-19T08:41:33;8.87;;;2.30;;
14923;SDS011;7554;43.600;1.480;2023-10-19T08:44:08;7.27;;;2.57;;
14923;SDS011;7554;43.600;1.480;2023-10-19T08:46:38;11.53;;;2.97;;
14923;SDS011;7554;43.600;1.480;2023-10-19T08:49:11;9.57;;;2.60;;
14923;SDS011;7554;43.600;1.480;2023-10-19T08:51:54;5.77;;;2.40;;
14923;SDS011;7554;43.600;1.480;2023-10-19T08:55:01;12.13;;;2.60;;
14923;SDS011;7554;43.600;1.480;2023-10-19T09:00:48;7.47;;;2.70;;
14923;SDS011;7554;43.600;1.480;2023-10-19T09:07:08;11.23;;;2.77;;
14923;SDS011;7554;43.600;1.480;2023-10-19T09:09:36;10.33;;;2.87;;
14923;SDS011;7554;43.600;1.480;2023-10-19T09:12:06;9.83;;;3.00;;
14923;SDS011;7554;43.600;1.480;2023-10-19T09:14:35;9.63;;;3.00;;
14923;SDS011;7554;43.600;1.480;2023-10-19T09:17:06;5.80;;;3.07;;
14923;SDS011;7554;43.600;1.480;2023-10-19T09:19:38;15.07;;;3.83;;
14923;SDS011;7554;43.600;1.480;2023-10-19T09:22:11;11.93;;;3.47;;
14923;SDS011;7554;43.600;1.480;2023-10-19T09:24:48;10.63;;;3.90;;
14923;SDS011;7554;43.600;1.480;2023-10-19T09:27:18;12.03;;;3.77;;
14923;SDS011;7554;43.600;1.480;2023-10-19T09:29:46;10.77;;;3.40;;
14923;SDS011;7554;43.600;1.480;2023-10-19T09:32:16;11.27;;;3.53;;
14923;SDS011;7554;43.600;1.480;2023-10-19T09:34:44;14.60;;;3.10;;
14923;SDS011;7554;43.600;1.480;2023-10-19T09:37:22;11.63;;;3.53;;
14923;SDS011;7554;43.600;1.480;2023-10-19T09:39:51;14.47;;;4.20;;
14923;SDS011;7554;43.600;1.480;2023-10-19T09:42:19;11.23;;;3.50;;
14923;SDS011;7554;43.600;1.480;2023-10-19T09:44:47;9.50;;;2.90;;
14923;SDS011;7554;43.600;1.480;2023-10-19T09:47:22;14.33;;;3.37;;
14923;SDS011;7554;43.600;1.480;2023-10-19T09:49:57;7.77;;;2.60;;
14923;SDS011;7554;43.600;1.480;2023-10-19T09:52:26;9.27;;;2.80;;
14923;SDS011;7554;43.600;1.480;2023-10-19T09:54:57;9.47;;;2.60;;
14923;SDS011;7554;43.600;1.480;2023-10-19T09:57:31;12.27;;;3.30;;
14923;SDS011;7554;43.600;1.480;2023-10-19T10:00:02;7.77;;;2.63;;
14923;SDS011;7554;43.600;1.480;2023-10-19T10:05:50;16.70;;;5.07;;
14923;SDS011;7554;43.600;1.480;2023-10-19T10:11:45;9.93;;;3.10;;
14923;SDS011;7554;43.600;1.480;2023-10-19T10:14:22;8.27;;;3.53;;
14923;SDS011;7554;43.600;1.480;2023-10-19T10:16:59;10.17;;;3.10;;
14923;SDS011;7554;43.600;1.480;2023-10-19T10:19:27;13.37;;;4.03;;
14923;SDS011;7554;43.600;1.480;2023-10-19T10:22:03;12.20;;;3.60;;
14923;SDS011;7554;43.600;1.480;2023-10-19T10:24:39;12.20;;;3.27;;
14923;SDS011;7554;43.600;1.480;2023-10-19T10:27:09;12.23;;;3.43;;
14923;SDS011;7554;43.600;1.480;2023-10-19T10:29:49;9.40;;;3.33;;
14923;SDS011;7554;43.600;1.480;2023-10-19T10:35:09;10.80;;;2.87;;
14923;SDS011;7554;43.600;1.480;2023-10-19T10:37:37;9.23;;;2.77;;
14923;SDS011;7554;43.600;1.480;2023-10-19T10:40:05;8.37;;;2.80;;
14923;SDS011;7554;43.600;1.480;2023-10-19T10:42:38;9.53;;;3.47;;
14923;SDS011;7554;43.600;1.480;2023-10-19T10:45:31;10.00;;;3.30;;
14923;SDS011;7554;43.600;1.480;2023-10-19T10:47:58;7.63;;;3.00;;
14923;SDS011;7554;43.600;1.480;2023-10-19T10:50:28;6.80;;;2.83;;
14923;SDS011;7554;43.600;1.480;2023-10-19T10:52:55;13.07;;;3.03;;
14923;SDS011;7554;43.600;1.480;2023-10-19T10:55:23;8.90;;;3.03;;
14923;SDS011;7554;43.600;1.480;2023-10-19T10:57:55;8.77;;;3.20;;
14923;SDS011;7554;43.600;1.480;2023-10-19T11:00:23;6.23;;;2.70;;
14923;SDS011;7554;43.600;1.480;2023-10-19T11:03:00;8.20;;;2.83;;
14923;SDS011;7554;43.600;1.480;2023-10-19T11:05:29;8.23;;;3.10;;
14923;SDS011;7554;43.600;1.480;2023-10-19T11:08:06;4.87;;;2.37;;
14923;SDS011;7554;43.600;1.480;2023-10-19T11:10:38;9.17;;;3.63;;
14923;SDS011;7554;43.600;1.480;2023-10-19T11:13:11;8.73;;;2.93;;
14923;SDS011;7554;43.600;1.480;2023-10-19T11:15:48;11.47;;;3.40;;
14923;SDS011;7554;43.600;1.480;2023-10-19T11:18:28;9.83;;;3.20;;
14923;SDS011;7554;43.600;1.480;2023-10-19T11:20:58;11.53;;;3.37;;
14923;SDS011;7554;43.600;1.480;2023-10-19T11:23:39;11.90;;;3.00;;
14923;SDS011;7554;43.600;1.480;2023-10-19T11:26:07;7.70;;;2.60;;
14923;SDS011;7554;43.600;1.480;2023-10-19T11:28:37;9.07;;;3.17;;
14923;SDS011;7554;43.600;1.480;2023-10-19T11:31:19;7.50;;;2.73;;
14923;SDS011;7554;43.600;1.480;2023-10-19T11:34:05;12.57;;;3.10;;
14923;SDS011;7554;43.600;1.480;2023-10-19T11:36:34;8.10;;;3.00;;
14923;SDS011;7554;43.600;1.480;2023-10-19T11:39:01;9.17;;;3.17;;
14923;SDS011;7554;43.600;1.480;2023-10-19T11:41:29;12.07;;;3.50;;
14923;SDS011;7554;43.600;1.480;2023-10-19T11:43:58;12.43;;;3.63;;
14923;SDS011;7554;43.600;1.480;2023-10-19T11:46:28;10.10;;;3.60;;
14923;SDS011;7554;43.600;1.480;2023-10-19T11:49:04;10.20;;;3.50;;
14923;SDS011;7554;43.600;1.480;2023-10-19T11:51:45;5.30;;;3.07;;
14923;SDS011;7554;43.600;1.480;2023-10-19T11:54:13;9.80;;;3.80;;
14923;SDS011;7554;43.600;1.480;2023-10-19T11:56:41;9.03;;;3.73;;
14923;SDS011;7554;43.600;1.480;2023-10-19T11:59:10;10.93;;;3.33;;
14923;SDS011;7554;43.600;1.480;2023-10-19T12:01:40;7.90;;;3.07;;
14923;SDS011;7554;43.600;1.480;2023-10-19T12:04:08;7.37;;;3.00;;
14923;SDS011;7554;43.600;1.480;2023-10-19T12:06:35;8.63;;;3.13;;
14923;SDS011;7554;43.600;1.480;2023-10-19T12:09:03;6.63;;;2.73;;
14923;SDS011;7554;43.600;1.480;2023-10-19T12:11:40;8.93;;;2.90;;
14923;SDS011;7554;43.600;1.480;2023-10-19T12:14:07;8.33;;;3.00;;
14923;SDS011;7554;43.600;1.480;2023-10-19T12:16:38;9.63;;;2.73;;
14923;SDS011;7554;43.600;1.480;2023-10-19T12:19:05;8.93;;;2.77;;
14923;SDS011;7554;43.600;1.480;2023-10-19T12:21:33;9.43;;;2.30;;
14923;SDS011;7554;43.600;1.480;2023-10-19T12:24:03;10.47;;;2.80;;
14923;SDS011;7554;43.600;1.480;2023-10-19T12:26:31;6.93;;;2.30;;
14923;SDS011;7554;43.600;1.480;2023-10-19T12:28:58;8.60;;;2.60;;
14923;SDS011;7554;43.600;1.480;2023-10-19T12:31:25;7.33;;;2.40;;
14923;SDS011;7554;43.600;1.480;2023-10-19T12:33:56;8.27;;;2.37;;
14923;SDS011;7554;43.600;1.480;2023-10-19T12:36:24;5.33;;;2.33;;
14923;SDS011;7554;43.600;1.480;2023-10-19T12:38:57;9.13;;;2.63;;
14923;SDS011;7554;43.600;1.480;2023-10-19T12:41:25;9.63;;;2.47;;
14923;SDS011;7554;43.600;1.480;2023-10-19T12:43:56;7.67;;;2.83;;
14923;SDS011;7554;43.600;1.480;2023-10-19T12:46:24;13.70;;;3.33;;
14923;SDS011;7554;43.600;1.480;2023-10-19T12:48:52;10.87;;;4.33;;
14923;SDS011;7554;43.600;1.480;2023-10-19T12:51:22;10.33;;;2.73;;
14923;SDS011;7554;43.600;1.480;2023-10-19T12:53:50;7.07;;;2.50;;
14923;SDS011;7554;43.600;1.480;2023-10-19T12:56:20;6.53;;;2.33;;
14923;SDS011;7554;43.600;1.480;2023-10-19T12:58:49;5.67;;;2.30;;
14923;SDS011;7554;43.600;1.480;2023-10-19T13:01:17;8.53;;;2.70;;
14923;SDS011;7554;43.600;1.480;2023-10-19T13:03:45;8.00;;;2.40;;
14923;SDS011;7554;43.600;1.480;2023-10-19T13:06:13;9.43;;;2.67;;
14923;SDS011;7554;43.600;1.480;2023-10-19T13:08:41;11.53;;;2.70;;
14923;SDS011;7554;43.600;1.480;2023-10-19T13:11:09;9.17;;;2.20;;
14923;SDS011;7554;43.600;1.480;2023-10-19T13:13:39;7.17;;;2.33;;
14923;SDS011;7554;43.600;1.480;2023-10-19T13:16:06;7.77;;;2.50;;
14923;SDS011;7554;43.600;1.480;2023-10-19T13:18:34;8.63;;;3.00;;
14923;SDS011;7554;43.600;1.480;2023-10-19T13:21:01;8.13;;;2.50;;
14923;SDS011;7554;43.600;1.480;2023-10-19T13:23:30;6.70;;;2.43;;
14923;SDS011;7554;43.600;1.480;2023-10-19T13:26:00;7.33;;;2.73;;
14923;SDS011;7554;43.600;1.480;2023-10-19T13:28:42;9.33;;;3.03;;
14923;SDS011;7554;43.600;1.480;2023-10-19T13:31:10;10.20;;;3.20;;
14923;SDS011;7554;43.600;1.480;2023-10-19T13:33:42;8.60;;;3.07;;
14923;SDS011;7554;43.600;1.480;2023-10-19T13:36:11;5.97;;;2.63;;
14923;SDS011;7554;43.600;1.480;2023-10-19T13:38:38;9.77;;;3.10;;
14923;SDS011;7554;43.600;1.480;2023-10-19T13:41:07;8.27;;;2.73;;
14923;SDS011;7554;43.600;1.480;2023-10-19T13:43:36;9.40;;;2.80;;
14923;SDS011;7554;43.600;1.480;2023-10-19T13:46:04;7.60;;;2.57;;
14923;SDS011;7554;43.600;1.480;2023-10-19T13:48:31;8.57;;;2.83;;
14923;SDS011;7554;43.600;1.480;2023-10-19T13:50:59;8.50;;;2.80;;
14923;SDS011;7554;43.600;1.480;2023-10-19T13:53:37;8.43;;;2.67;;
14923;SDS011;7554;43.600;1.480;2023-10-19T13:56:08;7.13;;;2.70;;
14923;SDS011;7554;43.600;1.480;2023-10-19T13:58:36;7.77;;;2.90;;
14923;SDS011;7554;43.600;1.480;2023-10-19T14:01:06;8.40;;;2.70;;
14923;SDS011;7554;43.600;1.480;2023-10-19T14:03:34;7.93;;;2.83;;
14923;SDS011;7554;43.600;1.480;2023-10-19T14:06:03;7.60;;;2.90;;
14923;SDS011;7554;43.600;1.480;2023-10-19T14:08:30;10.80;;;2.90;;
14923;SDS011;7554;43.600;1.480;2023-10-19T14:11:00;11.53;;;3.67;;
14923;SDS011;7554;43.600;1.480;2023-10-19T14:13:33;10.40;;;3.00;;
14923;SDS011;7554;43.600;1.480;2023-10-19T14:16:04;7.80;;;2.60;;
14923;SDS011;7554;43.600;1.480;2023-10-19T14:18:35;6.73;;;2.53;;
14923;SDS011;7554;43.600;1.480;2023-10-19T14:21:10;9.87;;;3.00;;
14923;SDS011;7554;43.600;1.480;2023-10-19T14:23:39;11.07;;;3.07;;
14923;SDS011;7554;43.600;1.480;2023-10-19T14:26:08;8.97;;;2.97;;
14923;SDS011;7554;43.600;1.480;2023-10-19T14:28:38;10.30;;;3.30;;
14923;SDS011;7554;43.600;1.480;2023-10-19T14:31:06;11.53;;;3.47;;
14923;SDS011;7554;43.600;1.480;2023-10-19T14:33:33;5.70;;;2.63;;
14923;SDS011;7554;43.600;1.480;2023-10-19T14:36:01;9.73;;;3.20;;
14923;SDS011;7554;43.600;1.480;2023-10-19T14:38:29;11.47;;;3.00;;
14923;SDS011;7554;43.600;1.480;2023-10-19T14:40:57;12.07;;;2.90;;
14923;SDS011;7554;43.600;1.480;2023-10-19T14:43:24;8.37;;;2.87;;
14923;SDS011;7554;43.600;1.480;2023-10-19T14:45:55;7.83;;;2.83;;
14923;SDS011;7554;43.600;1.480;2023-10-19T14:48:26;7.50;;;2.80;;
14923;SDS011;7554;43.600;1.480;2023-10-19T14:50:55;7.60;;;3.10;;
14923;SDS011;7554;43.600;1.480;2023-10-19T14:53:23;10.70;;;3.43;;
14923;SDS011;7554;43.600;1.480;2023-10-19T14:55:51;9.17;;;2.90;;
14923;SDS011;7554;43.600;1.480;2023-10-19T14:58:18;7.20;;;3.00;;
14923;SDS011;7554;43.600;1.480;2023-10-19T15:00:46;12.50;;;3.10;;
14923;SDS011;7554;43.600;1.480;2023-10-19T15:03:21;6.33;;;2.87;;
14923;SDS011;7554;43.600;1.480;2023-10-19T15:05:50;8.67;;;2.83;;
14923;SDS011;7554;43.600;1.480;2023-10-19T15:08:18;15.90;;;3.50;;
14923;SDS011;7554;43.600;1.480;2023-10-19T15:10:49;11.47;;;3.17;;
14923;SDS011;7554;43.600;1.480;2023-10-19T15:13:19;11.73;;;3.20;;
14923;SDS011;7554;43.600;1.480;2023-10-19T15:15:46;9.47;;;3.20;;
14923;SDS011;7554;43.600;1.480;2023-10-19T15:18:14;9.43;;;3.47;;
14923;SDS011;7554;43.600;1.480;2023-10-19T15:20:42;7.70;;;3.50;;
14923;SDS011;7554;43.600;1.480;2023-10-19T15:23:11;11.40;;;3.63;;
14923;SDS011;7554;43.600;1.480;2023-10-19T15:25:39;10.67;;;3.47;;
14923;SDS011;7554;43.600;1.480;2023-10-19T15:28:06;14.87;;;4.10;;
14923;SDS011;7554;43.600;1.480;2023-10-19T15:30:35;9.93;;;3.53;;
14923;SDS011;7554;43.600;1.480;2023-10-19T15:33:03;8.50;;;3.30;;
14923;SDS011;7554;43.600;1.480;2023-10-19T15:35:31;11.87;;;3.47;;
14923;SDS011;7554;43.600;1.480;2023-10-19T15:38:03;13.67;;;3.40;;
14923;SDS011;7554;43.600;1.480;2023-10-19T15:40:30;7.77;;;2.90;;
14923;SDS011;7554;43.600;1.480;2023-10-19T15:42:58;10.63;;;3.10;;
14923;SDS011;7554;43.600;1.480;2023-10-19T15:45:26;12.73;;;3.43;;
14923;SDS011;7554;43.600;1.480;2023-10-19T15:47:53;8.40;;;3.00;;
14923;SDS011;7554;43.600;1.480;2023-10-19T15:50:21;9.63;;;3.17;;
14923;SDS011;7554;43.600;1.480;2023-10-19T15:52:49;7.33;;;3.00;;
14923;SDS011;7554;43.600;1.480;2023-10-19T15:55:18;10.93;;;2.93;;
14923;SDS011;7554;43.600;1.480;2023-10-19T15:57:47;9.80;;;3.63;;
14923;SDS011;7554;43.600;1.480;2023-10-19T16:00:15;9.73;;;3.37;;
14923;SDS011;7554;43.600;1.480;2023-10-19T16:02:45;7.63;;;2.50;;
14923;SDS011;7554;43.600;1.480;2023-10-19T16:05:12;10.77;;;3.20;;
14923;SDS011;7554;43.600;1.480;2023-10-19T16:07:41;10.73;;;3.40;;
14923;SDS011;7554;43.600;1.480;2023-10-19T16:10:09;10.47;;;3.17;;
14923;SDS011;7554;43.600;1.480;2023-10-19T16:12:39;10.10;;;3.10;;
14923;SDS011;7554;43.600;1.480;2023-10-19T16:15:08;8.93;;;3.00;;
14923;SDS011;7554;43.600;1.480;2023-10-19T16:17:37;11.40;;;3.43;;